sensor_id;sensor_type;location;lat;lon;timestamp;P1;durP1;ratioP1;P2;durP2;ratioP2
32800;SDS011;40572;45.552;12.072;2022-09-02T00:01:52;3.20;;;2.10;;
32800;SDS011;40572;45.552;12.072;2022-09-02T00:04:19;3.83;;;2.47;;
32800;SDS011;40572;45.552;12.072;2022-09-02T00:06:47;3.00;;;2.20;;
32800;SDS011;40572;45.552;12.072;2022-09-02T00:09:15;3.40;;;2.33;;
32800;SDS011;40572;45.552;12.072;2022-09-02T00:11:42;5.03;;;2.30;;
32800;SDS011;40572;45.552;12.072;2022-09-02T00:14:10;3.63;;;2.37;;
32800;SDS011;40572;45.552;12.072;2022-09-02T00:16:36;2.67;;;2.20;;
32800;SDS011;40572;45.552;12.072;2022-09-02T00:19:02;3.25;;;2.05;;
32800;SDS011;40572;45.552;12.072;2022-09-02T00:21:30;3.60;;;2.40;;
32800;SDS011;40572;45.552;12.072;2022-09-02T00:23:57;3.73;;;2.40;;
32800;SDS011;40572;45.552;12.072;2022-09-02T00:26:22;3.27;;;2.42;;
32800;SDS011;40572;45.552;12.072;2022-09-02T00:28:49;2.42;;;2.10;;
32800;SDS011;40572;45.552;12.072;2022-09-02T00:31:15;2.95;;;2.65;;
32800;SDS011;40572;45.552;12.072;2022-09-02T00:33:42;8.80;;;2.83;;
32800;SDS011;40572;45.552;12.072;2022-09-02T00:36:10;3.77;;;2.37;;
32800;SDS011;40572;45.552;12.072;2022-09-02T00:38:36;3.70;;;2.37;;
32800;SDS011;40572;45.552;12.072;2022-09-02T00:41:05;4.47;;;2.52;;
32800;SDS011;40572;45.552;12.072;2022-09-02T00:43:48;3.63;;;2.53;;
32800;SDS011;40572;45.552;12.072;2022-09-02T00:46:15;3.53;;;2.50;;
32800;SDS011;40572;45.552;12.072;2022-09-02T00:48:45;4.03;;;2.40;;
32800;SDS011;40572;45.552;12.072;2022-09-02T00:51:10;4.20;;;2.80;;
32800;SDS011;40572;45.552;12.072;2022-09-02T00:53:36;2.75;;;2.45;;
32800;SDS011;40572;45.552;12.072;2022-09-02T00:56:04;4.47;;;2.47;;
32800;SDS011;40572;45.552;12.072;2022-09-02T00:58:32;3.63;;;2.20;;
32800;SDS011;40572;45.552;12.072;2022-09-02T01:00:59;2.47;;;2.27;;
32800;SDS011;40572;45.552;12.072;2022-09-02T01:03:27;4.30;;;2.02;;
32800;SDS011;40572;45.552;12.072;2022-09-02T01:05:53;2.77;;;2.50;;
32800;SDS011;40572;45.552;12.072;2022-09-02T01:08:26;3.17;;;2.20;;
32800;SDS011;40572;45.552;12.072;2022-09-02T01:10:50;2.80;;;2.50;;
32800;SDS011;40572;45.552;12.072;2022-09-02T01:13:18;4.40;;;2.43;;
32800;SDS011;40572;45.552;12.072;2022-09-02T01:15:46;2.70;;;2.37;;
32800;SDS011;40572;45.552;12.072;2022-09-02T01:18:14;2.98;;;2.55;;
32800;SDS011;40572;45.552;12.072;2022-09-02T01:20:40;2.63;;;2.27;;
32800;SDS011;40572;45.552;12.072;2022-09-02T01:23:07;5.03;;;2.57;;
32800;SDS011;40572;45.552;12.072;2022-09-02T01:25:33;3.90;;;2.40;;
32800;SDS011;40572;45.552;12.072;2022-09-02T01:28:00;2.40;;;2.10;;
32800;SDS011;40572;45.552;12.072;2022-09-02T01:30:26;3.83;;;2.42;;
32800;SDS011;40572;45.552;12.072;2022-09-02T01:32:52;3.10;;;2.30;;
32800;SDS011;40572;45.552;12.072;2022-09-02T01:35:18;3.22;;;2.22;;
32800;SDS011;40572;45.552;12.072;2022-09-02T01:37:45;2.62;;;2.10;;
32800;SDS011;40572;45.552;12.072;2022-09-02T01:40:12;2.05;;;1.82;;
32800;SDS011;40572;45.552;12.072;2022-09-02T01:42:39;2.30;;;2.05;;
32800;SDS011;40572;45.552;12.072;2022-09-02T01:45:06;3.20;;;2.43;;
32800;SDS011;40572;45.552;12.072;2022-09-02T01:47:33;3.53;;;2.60;;
32800;SDS011;40572;45.552;12.072;2022-09-02T01:50:01;2.53;;;2.30;;
32800;SDS011;40572;45.552;12.072;2022-09-02T01:52:28;3.00;;;2.43;;
32800;SDS011;40572;45.552;12.072;2022-09-02T01:54:54;4.80;;;2.45;;
32800;SDS011;40572;45.552;12.072;2022-09-02T01:57:20;3.00;;;2.27;;
32800;SDS011;40572;45.552;12.072;2022-09-02T01:59:49;3.23;;;2.67;;
32800;SDS011;40572;45.552;12.072;2022-09-02T02:02:15;3.47;;;2.73;;
32800;SDS011;40572;45.552;12.072;2022-09-02T02:04:43;3.03;;;2.40;;
32800;SDS011;40572;45.552;12.072;2022-09-02T02:07:12;6.42;;;2.77;;
32800;SDS011;40572;45.552;12.072;2022-09-02T02:09:39;3.20;;;2.67;;
32800;SDS011;40572;45.552;12.072;2022-09-02T02:12:06;3.77;;;2.47;;
32800;SDS011;40572;45.552;12.072;2022-09-02T02:14:32;5.22;;;2.60;;
32800;SDS011;40572;45.552;12.072;2022-09-02T02:16:59;4.30;;;2.77;;
32800;SDS011;40572;45.552;12.072;2022-09-02T02:19:25;5.15;;;2.65;;
32800;SDS011;40572;45.552;12.072;2022-09-02T02:21:51;5.20;;;2.98;;
32800;SDS011;40572;45.552;12.072;2022-09-02T02:24:18;5.30;;;2.70;;
32800;SDS011;40572;45.552;12.072;2022-09-02T02:26:44;2.55;;;2.35;;
32800;SDS011;40572;45.552;12.072;2022-09-02T02:29:12;5.23;;;2.63;;
32800;SDS011;40572;45.552;12.072;2022-09-02T02:31:39;5.90;;;2.98;;
32800;SDS011;40572;45.552;12.072;2022-09-02T02:34:06;4.37;;;2.80;;
32800;SDS011;40572;45.552;12.072;2022-09-02T02:36:34;4.23;;;2.90;;
32800;SDS011;40572;45.552;12.072;2022-09-02T02:39:00;3.75;;;2.80;;
32800;SDS011;40572;45.552;12.072;2022-09-02T02:41:26;3.33;;;3.08;;
32800;SDS011;40572;45.552;12.072;2022-09-02T02:43:53;4.85;;;3.12;;
32800;SDS011;40572;45.552;12.072;2022-09-02T02:46:19;2.95;;;2.75;;
32800;SDS011;40572;45.552;12.072;2022-09-02T02:48:45;4.15;;;2.83;;
32800;SDS011;40572;45.552;12.072;2022-09-02T02:51:12;3.27;;;2.90;;
32800;SDS011;40572;45.552;12.072;2022-09-02T02:53:39;4.90;;;3.27;;
32800;SDS011;40572;45.552;12.072;2022-09-02T02:56:05;3.17;;;2.92;;
32800;SDS011;40572;45.552;12.072;2022-09-02T02:58:31;4.35;;;2.87;;
32800;SDS011;40572;45.552;12.072;2022-09-02T03:00:58;3.60;;;2.95;;
32800;SDS011;40572;45.552;12.072;2022-09-02T03:03:25;3.77;;;3.10;;
32800;SDS011;40572;45.552;12.072;2022-09-02T03:05:53;3.20;;;2.90;;
32800;SDS011;40572;45.552;12.072;2022-09-02T03:08:19;5.42;;;3.08;;
32800;SDS011;40572;45.552;12.072;2022-09-02T03:10:48;3.73;;;3.23;;
32800;SDS011;40572;45.552;12.072;2022-09-02T03:13:16;3.87;;;3.10;;
32800;SDS011;40572;45.552;12.072;2022-09-02T03:15:43;3.97;;;3.30;;
32800;SDS011;40572;45.552;12.072;2022-09-02T03:18:10;4.10;;;3.00;;
32800;SDS011;40572;45.552;12.072;2022-09-02T03:20:37;3.22;;;2.92;;
32800;SDS011;40572;45.552;12.072;2022-09-02T03:23:04;5.03;;;3.37;;
32800;SDS011;40572;45.552;12.072;2022-09-02T03:25:31;4.47;;;2.70;;
32800;SDS011;40572;45.552;12.072;2022-09-02T03:27:59;4.27;;;2.70;;
32800;SDS011;40572;45.552;12.072;2022-09-02T03:30:26;3.10;;;2.90;;
32800;SDS011;40572;45.552;12.072;2022-09-02T03:32:53;3.83;;;2.95;;
32800;SDS011;40572;45.552;12.072;2022-09-02T03:35:20;3.70;;;2.97;;
32800;SDS011;40572;45.552;12.072;2022-09-02T03:37:47;4.00;;;2.83;;
32800;SDS011;40572;45.552;12.072;2022-09-02T03:40:15;3.80;;;2.77;;
32800;SDS011;40572;45.552;12.072;2022-09-02T03:42:41;2.80;;;2.60;;
32800;SDS011;40572;45.552;12.072;2022-09-02T03:45:08;3.52;;;2.60;;
32800;SDS011;40572;45.552;12.072;2022-09-02T03:47:35;3.50;;;2.53;;
32800;SDS011;40572;45.552;12.072;2022-09-02T03:50:03;3.10;;;2.70;;
32800;SDS011;40572;45.552;12.072;2022-09-02T03:52:29;3.83;;;2.90;;
32800;SDS011;40572;45.552;12.072;2022-09-02T03:54:56;2.90;;;2.60;;
32800;SDS011;40572;45.552;12.072;2022-09-02T03:57:24;3.70;;;2.70;;
32800;SDS011;40572;45.552;12.072;2022-09-02T03:59:52;2.77;;;2.47;;
32800;SDS011;40572;45.552;12.072;2022-09-02T04:02:18;3.58;;;2.75;;
32800;SDS011;40572;45.552;12.072;2022-09-02T04:04:44;2.92;;;2.62;;
32800;SDS011;40572;45.552;12.072;2022-09-02T04:07:10;3.60;;;2.92;;
32800;SDS011;40572;45.552;12.072;2022-09-02T04:09:36;3.15;;;2.50;;
32800;SDS011;40572;45.552;12.072;2022-09-02T04:12:03;5.73;;;2.60;;
32800;SDS011;40572;45.552;12.072;2022-09-02T04:14:30;2.57;;;2.30;;
32800;SDS011;40572;45.552;12.072;2022-09-02T04:16:56;4.53;;;2.65;;
32800;SDS011;40572;45.552;12.072;2022-09-02T04:19:23;3.83;;;2.50;;
32800;SDS011;40572;45.552;12.072;2022-09-02T04:21:49;2.83;;;2.60;;
32800;SDS011;40572;45.552;12.072;2022-09-02T04:24:16;3.50;;;3.10;;
32800;SDS011;40572;45.552;12.072;2022-09-02T04:26:44;4.00;;;2.70;;
32800;SDS011;40572;45.552;12.072;2022-09-02T04:29:10;3.95;;;2.70;;
32800;SDS011;40572;45.552;12.072;2022-09-02T04:31:36;3.47;;;2.80;;
32800;SDS011;40572;45.552;12.072;2022-09-02T04:34:03;4.15;;;2.62;;
32800;SDS011;40572;45.552;12.072;2022-09-02T04:36:30;3.03;;;2.73;;
32800;SDS011;40572;45.552;12.072;2022-09-02T04:38:56;8.08;;;3.27;;
32800;SDS011;40572;45.552;12.072;2022-09-02T04:41:25;4.30;;;2.50;;
32800;SDS011;40572;45.552;12.072;2022-09-02T04:43:55;3.83;;;2.90;;
32800;SDS011;40572;45.552;12.072;2022-09-02T04:46:21;4.83;;;2.80;;
32800;SDS011;40572;45.552;12.072;2022-09-02T04:48:48;2.90;;;2.60;;
32800;SDS011;40572;45.552;12.072;2022-09-02T04:51:15;2.75;;;2.30;;
32800;SDS011;40572;45.552;12.072;2022-09-02T04:53:41;3.20;;;2.47;;
32800;SDS011;40572;45.552;12.072;2022-09-02T04:56:09;3.20;;;2.70;;
32800;SDS011;40572;45.552;12.072;2022-09-02T04:58:37;4.33;;;2.60;;
32800;SDS011;40572;45.552;12.072;2022-09-02T05:01:07;3.70;;;2.60;;
32800;SDS011;40572;45.552;12.072;2022-09-02T05:03:34;4.33;;;2.60;;
32800;SDS011;40572;45.552;12.072;2022-09-02T05:06:01;2.57;;;2.23;;
32800;SDS011;40572;45.552;12.072;2022-09-02T05:08:28;3.07;;;2.60;;
32800;SDS011;40572;45.552;12.072;2022-09-02T05:10:54;3.05;;;2.47;;
32800;SDS011;40572;45.552;12.072;2022-09-02T05:13:20;2.98;;;2.22;;
32800;SDS011;40572;45.552;12.072;2022-09-02T05:15:48;3.07;;;2.47;;
32800;SDS011;40572;45.552;12.072;2022-09-02T05:18:14;2.80;;;2.50;;
32800;SDS011;40572;45.552;12.072;2022-09-02T05:20:43;3.87;;;2.47;;
32800;SDS011;40572;45.552;12.072;2022-09-02T05:23:10;4.00;;;2.77;;
32800;SDS011;40572;45.552;12.072;2022-09-02T05:25:38;4.10;;;2.80;;
32800;SDS011;40572;45.552;12.072;2022-09-02T05:28:05;2.80;;;2.50;;
32800;SDS011;40572;45.552;12.072;2022-09-02T05:30:35;4.70;;;2.60;;
32800;SDS011;40572;45.552;12.072;2022-09-02T05:33:02;2.93;;;2.60;;
32800;SDS011;40572;45.552;12.072;2022-09-02T05:35:30;2.95;;;2.30;;
32800;SDS011;40572;45.552;12.072;2022-09-02T05:37:56;2.33;;;2.02;;
32800;SDS011;40572;45.552;12.072;2022-09-02T05:40:23;4.67;;;2.33;;
32800;SDS011;40572;45.552;12.072;2022-09-02T05:42:50;3.73;;;2.50;;
32800;SDS011;40572;45.552;12.072;2022-09-02T05:45:16;5.03;;;2.60;;
32800;SDS011;40572;45.552;12.072;2022-09-02T05:47:43;2.60;;;2.27;;
32800;SDS011;40572;45.552;12.072;2022-09-02T05:50:09;2.97;;;2.27;;
32800;SDS011;40572;45.552;12.072;2022-09-02T05:52:35;2.35;;;2.15;;
32800;SDS011;40572;45.552;12.072;2022-09-02T05:55:02;4.10;;;2.47;;
32800;SDS011;40572;45.552;12.072;2022-09-02T05:57:29;3.23;;;2.23;;
32800;SDS011;40572;45.552;12.072;2022-09-02T06:00:00;5.03;;;2.67;;
32800;SDS011;40572;45.552;12.072;2022-09-02T06:02:44;3.90;;;2.20;;
32800;SDS011;40572;45.552;12.072;2022-09-02T06:05:12;3.77;;;2.40;;
32800;SDS011;40572;45.552;12.072;2022-09-02T06:07:40;3.33;;;2.60;;
32800;SDS011;40572;45.552;12.072;2022-09-02T06:10:07;2.40;;;2.20;;
32800;SDS011;40572;45.552;12.072;2022-09-02T06:12:34;3.27;;;3.08;;
32800;SDS011;40572;45.552;12.072;2022-09-02T06:15:01;4.73;;;2.83;;
32800;SDS011;40572;45.552;12.072;2022-09-02T06:17:28;3.37;;;2.87;;
32800;SDS011;40572;45.552;12.072;2022-09-02T06:19:55;3.43;;;2.70;;
32800;SDS011;40572;45.552;12.072;2022-09-02T06:22:22;3.33;;;2.70;;
32800;SDS011;40572;45.552;12.072;2022-09-02T06:24:48;3.20;;;3.00;;
32800;SDS011;40572;45.552;12.072;2022-09-02T06:27:17;4.70;;;3.70;;
32800;SDS011;40572;45.552;12.072;2022-09-02T06:29:44;4.20;;;3.90;;
32800;SDS011;40572;45.552;12.072;2022-09-02T06:36:09;6.17;;;5.67;;
32800;SDS011;40572;45.552;12.072;2022-09-02T06:38:36;5.92;;;5.50;;
32800;SDS011;40572;45.552;12.072;2022-09-02T06:41:05;5.13;;;3.87;;
32800;SDS011;40572;45.552;12.072;2022-09-02T06:43:33;3.80;;;3.50;;
32800;SDS011;40572;45.552;12.072;2022-09-02T06:46:04;4.37;;;4.00;;
32800;SDS011;40572;45.552;12.072;2022-09-02T06:48:31;3.20;;;2.90;;
32800;SDS011;40572;45.552;12.072;2022-09-02T06:50:58;4.22;;;3.40;;
32800;SDS011;40572;45.552;12.072;2022-09-02T06:53:27;5.43;;;2.80;;
32800;SDS011;40572;45.552;12.072;2022-09-02T06:55:53;5.00;;;2.70;;
32800;SDS011;40572;45.552;12.072;2022-09-02T06:58:20;4.70;;;2.60;;
32800;SDS011;40572;45.552;12.072;2022-09-02T07:00:47;3.03;;;2.40;;
32800;SDS011;40572;45.552;12.072;2022-09-02T07:03:13;2.67;;;2.20;;
32800;SDS011;40572;45.552;12.072;2022-09-02T07:08:28;3.17;;;2.23;;
32800;SDS011;40572;45.552;12.072;2022-09-02T07:10:55;4.27;;;2.27;;
32800;SDS011;40572;45.552;12.072;2022-09-02T07:13:22;3.83;;;2.93;;
32800;SDS011;40572;45.552;12.072;2022-09-02T07:15:48;3.95;;;2.33;;
32800;SDS011;40572;45.552;12.072;2022-09-02T07:18:14;2.50;;;1.70;;
32800;SDS011;40572;45.552;12.072;2022-09-02T07:20:43;2.17;;;1.90;;
32800;SDS011;40572;45.552;12.072;2022-09-02T07:23:09;2.13;;;1.60;;
32800;SDS011;40572;45.552;12.072;2022-09-02T07:25:37;2.77;;;1.60;;
32800;SDS011;40572;45.552;12.072;2022-09-02T07:28:07;4.37;;;1.90;;
32800;SDS011;40572;45.552;12.072;2022-09-02T07:30:34;3.63;;;1.93;;
32800;SDS011;40572;45.552;12.072;2022-09-02T07:33:02;3.70;;;2.73;;
32800;SDS011;40572;45.552;12.072;2022-09-02T07:35:30;2.40;;;2.17;;
32800;SDS011;40572;45.552;12.072;2022-09-02T07:37:58;5.57;;;2.00;;
32800;SDS011;40572;45.552;12.072;2022-09-02T07:40:25;2.53;;;2.13;;
32800;SDS011;40572;45.552;12.072;2022-09-02T07:42:51;3.30;;;1.83;;
32800;SDS011;40572;45.552;12.072;2022-09-02T07:45:19;3.00;;;2.03;;
32800;SDS011;40572;45.552;12.072;2022-09-02T07:47:45;4.80;;;2.07;;
32800;SDS011;40572;45.552;12.072;2022-09-02T07:50:12;3.70;;;1.70;;
32800;SDS011;40572;45.552;12.072;2022-09-02T07:52:38;3.87;;;2.40;;
32800;SDS011;40572;45.552;12.072;2022-09-02T07:55:05;1.90;;;1.63;;
32800;SDS011;40572;45.552;12.072;2022-09-02T07:57:31;2.27;;;1.80;;
32800;SDS011;40572;45.552;12.072;2022-09-02T07:59:58;2.37;;;1.80;;
32800;SDS011;40572;45.552;12.072;2022-09-02T08:02:24;2.47;;;2.00;;
32800;SDS011;40572;45.552;12.072;2022-09-02T08:04:51;2.80;;;2.03;;
32800;SDS011;40572;45.552;12.072;2022-09-02T08:07:18;1.70;;;1.60;;
32800;SDS011;40572;45.552;12.072;2022-09-02T08:09:46;2.30;;;1.50;;
32800;SDS011;40572;45.552;12.072;2022-09-02T08:12:12;2.55;;;2.08;;
32800;SDS011;40572;45.552;12.072;2022-09-02T08:14:38;3.37;;;3.07;;
32800;SDS011;40572;45.552;12.072;2022-09-02T08:17:04;3.98;;;3.67;;
32800;SDS011;40572;45.552;12.072;2022-09-02T08:19:30;3.60;;;3.40;;
32800;SDS011;40572;45.552;12.072;2022-09-02T08:22:01;3.70;;;3.40;;
32800;SDS011;40572;45.552;12.072;2022-09-02T08:24:24;3.10;;;2.90;;
32800;SDS011;40572;45.552;12.072;2022-09-02T08:26:53;3.97;;;2.60;;
32800;SDS011;40572;45.552;12.072;2022-09-02T08:29:19;2.47;;;2.22;;
32800;SDS011;40572;45.552;12.072;2022-09-02T08:31:45;2.42;;;2.00;;
32800;SDS011;40572;45.552;12.072;2022-09-02T08:34:11;2.40;;;2.20;;
32800;SDS011;40572;45.552;12.072;2022-09-02T08:36:37;3.08;;;1.92;;
32800;SDS011;40572;45.552;12.072;2022-09-02T08:39:04;1.97;;;1.83;;
32800;SDS011;40572;45.552;12.072;2022-09-02T08:41:42;1.83;;;1.70;;
32800;SDS011;40572;45.552;12.072;2022-09-02T08:44:04;2.27;;;1.63;;
32800;SDS011;40572;45.552;12.072;2022-09-02T08:46:31;2.27;;;1.43;;
32800;SDS011;40572;45.552;12.072;2022-09-02T08:49:10;1.83;;;1.50;;
32800;SDS011;40572;45.552;12.072;2022-09-02T08:51:46;1.80;;;1.67;;
32800;SDS011;40572;45.552;12.072;2022-09-02T08:56:47;2.63;;;1.60;;
32800;SDS011;40572;45.552;12.072;2022-09-02T08:59:15;2.40;;;1.43;;
32800;SDS011;40572;45.552;12.072;2022-09-02T09:01:46;2.60;;;1.70;;
32800;SDS011;40572;45.552;12.072;2022-09-02T09:04:17;2.83;;;1.50;;
32800;SDS011;40572;45.552;12.072;2022-09-02T09:06:47;3.90;;;1.70;;
32800;SDS011;40572;45.552;12.072;2022-09-02T09:16:59;1.47;;;1.33;;
32800;SDS011;40572;45.552;12.072;2022-09-02T09:22:11;2.80;;;1.53;;
32800;SDS011;40572;45.552;12.072;2022-09-02T09:24:38;2.43;;;1.80;;
32800;SDS011;40572;45.552;12.072;2022-09-02T09:27:08;1.57;;;1.47;;
32800;SDS011;40572;45.552;12.072;2022-09-02T09:29:33;3.00;;;1.77;;
32800;SDS011;40572;45.552;12.072;2022-09-02T09:32:01;1.53;;;1.40;;
32800;SDS011;40572;45.552;12.072;2022-09-02T09:37:26;1.47;;;1.33;;
32800;SDS011;40572;45.552;12.072;2022-09-02T09:39:41;1.70;;;1.60;;
32800;SDS011;40572;45.552;12.072;2022-09-02T09:42:11;1.37;;;1.27;;
32800;SDS011;40572;45.552;12.072;2022-09-02T09:47:08;1.33;;;1.23;;
32800;SDS011;40572;45.552;12.072;2022-09-02T09:49:35;2.93;;;1.43;;
32800;SDS011;40572;45.552;12.072;2022-09-02T09:52:02;2.13;;;1.30;;
32800;SDS011;40572;45.552;12.072;2022-09-02T09:54:28;1.47;;;1.17;;
32800;SDS011;40572;45.552;12.072;2022-09-02T09:56:54;1.27;;;1.12;;
32800;SDS011;40572;45.552;12.072;2022-09-02T09:59:38;1.23;;;1.13;;
32800;SDS011;40572;45.552;12.072;2022-09-02T10:02:04;2.17;;;1.30;;
32800;SDS011;40572;45.552;12.072;2022-09-02T10:04:30;2.00;;;1.42;;
32800;SDS011;40572;45.552;12.072;2022-09-02T10:06:57;2.03;;;1.50;;
32800;SDS011;40572;45.552;12.072;2022-09-02T10:09:29;1.43;;;1.33;;
32800;SDS011;40572;45.552;12.072;2022-09-02T10:14:27;2.50;;;1.40;;
32800;SDS011;40572;45.552;12.072;2022-09-02T10:24:35;2.60;;;1.50;;
32800;SDS011;40572;45.552;12.072;2022-09-02T10:26:57;3.00;;;1.63;;
32800;SDS011;40572;45.552;12.072;2022-09-02T10:34:33;1.70;;;1.60;;
32800;SDS011;40572;45.552;12.072;2022-09-02T10:37:10;1.60;;;1.47;;
32800;SDS011;40572;45.552;12.072;2022-09-02T10:42:19;1.30;;;1.20;;
32800;SDS011;40572;45.552;12.072;2022-09-02T10:47:35;1.30;;;1.20;;
32800;SDS011;40572;45.552;12.072;2022-09-02T10:50:12;2.00;;;1.50;;
32800;SDS011;40572;45.552;12.072;2022-09-02T10:55:27;1.70;;;1.57;;
32800;SDS011;40572;45.552;12.072;2022-09-02T10:57:45;1.60;;;1.50;;
32800;SDS011;40572;45.552;12.072;2022-09-02T11:00:17;2.87;;;1.30;;
32800;SDS011;40572;45.552;12.072;2022-09-02T11:05:27;2.00;;;1.43;;
32800;SDS011;40572;45.552;12.072;2022-09-02T11:08:20;3.67;;;2.00;;
32800;SDS011;40572;45.552;12.072;2022-09-02T11:10:24;2.60;;;1.60;;
32800;SDS011;40572;45.552;12.072;2022-09-02T11:12:59;1.70;;;1.37;;
32800;SDS011;40572;45.552;12.072;2022-09-02T11:17:52;1.60;;;1.47;;
32800;SDS011;40572;45.552;12.072;2022-09-02T11:22:52;1.57;;;1.40;;
32800;SDS011;40572;45.552;12.072;2022-09-02T11:25:28;1.63;;;1.53;;
32800;SDS011;40572;45.552;12.072;2022-09-02T11:30:38;1.57;;;1.47;;
32800;SDS011;40572;45.552;12.072;2022-09-02T11:35:45;2.47;;;1.50;;
32800;SDS011;40572;45.552;12.072;2022-09-02T11:51:13;3.03;;;1.60;;
32800;SDS011;40572;45.552;12.072;2022-09-02T11:53:41;1.80;;;1.30;;
32800;SDS011;40572;45.552;12.072;2022-09-02T11:58:46;2.07;;;1.60;;
32800;SDS011;40572;45.552;12.072;2022-09-02T12:06:21;1.37;;;1.27;;
32800;SDS011;40572;45.552;12.072;2022-09-02T12:14:01;1.65;;;1.55;;
32800;SDS011;40572;45.552;12.072;2022-09-02T12:19:15;2.20;;;1.50;;
32800;SDS011;40572;45.552;12.072;2022-09-02T12:21:29;2.00;;;1.50;;
32800;SDS011;40572;45.552;12.072;2022-09-02T12:31:42;2.03;;;1.70;;
32800;SDS011;40572;45.552;12.072;2022-09-02T12:36:59;2.70;;;1.50;;
32800;SDS011;40572;45.552;12.072;2022-09-02T12:44:45;1.73;;;1.60;;
32800;SDS011;40572;45.552;12.072;2022-09-02T12:49:46;1.63;;;1.43;;
32800;SDS011;40572;45.552;12.072;2022-09-02T12:54:57;2.40;;;1.50;;
32800;SDS011;40572;45.552;12.072;2022-09-02T12:57:25;3.57;;;1.60;;
32800;SDS011;40572;45.552;12.072;2022-09-02T12:59:57;1.83;;;1.73;;
32800;SDS011;40572;45.552;12.072;2022-09-02T13:08:02;4.07;;;1.60;;
32800;SDS011;40572;45.552;12.072;2022-09-02T13:10:26;1.87;;;1.60;;
32800;SDS011;40572;45.552;12.072;2022-09-02T13:33:27;7.40;;;2.67;;
32800;SDS011;40572;45.552;12.072;2022-09-02T13:35:54;3.33;;;1.70;;
32800;SDS011;40572;45.552;12.072;2022-09-02T13:38:22;4.30;;;1.73;;
32800;SDS011;40572;45.552;12.072;2022-09-02T13:40:49;2.60;;;1.50;;
32800;SDS011;40572;45.552;12.072;2022-09-02T13:43:16;1.82;;;1.70;;
32800;SDS011;40572;45.552;12.072;2022-09-02T13:45:42;2.27;;;1.60;;
32800;SDS011;40572;45.552;12.072;2022-09-02T13:48:10;2.33;;;1.67;;
32800;SDS011;40572;45.552;12.072;2022-09-02T13:50:41;3.47;;;1.70;;
32800;SDS011;40572;45.552;12.072;2022-09-02T13:53:05;1.50;;;1.40;;
32800;SDS011;40572;45.552;12.072;2022-09-02T13:55:33;2.10;;;1.60;;
32800;SDS011;40572;45.552;12.072;2022-09-02T13:58:01;2.17;;;1.60;;
32800;SDS011;40572;45.552;12.072;2022-09-02T14:00:35;1.60;;;1.50;;
32800;SDS011;40572;45.552;12.072;2022-09-02T14:03:12;2.77;;;1.60;;
32800;SDS011;40572;45.552;12.072;2022-09-02T14:05:39;1.90;;;1.63;;
32800;SDS011;40572;45.552;12.072;2022-09-02T14:08:06;2.03;;;1.80;;
32800;SDS011;40572;45.552;12.072;2022-09-02T14:10:33;1.67;;;1.30;;
32800;SDS011;40572;45.552;12.072;2022-09-02T14:13:01;1.97;;;1.80;;
32800;SDS011;40572;45.552;12.072;2022-09-02T14:15:29;2.10;;;1.70;;
32800;SDS011;40572;45.552;12.072;2022-09-02T14:18:12;1.90;;;1.53;;
32800;SDS011;40572;45.552;12.072;2022-09-02T14:20:39;1.60;;;1.50;;
32800;SDS011;40572;45.552;12.072;2022-09-02T14:23:07;1.83;;;1.67;;
32800;SDS011;40572;45.552;12.072;2022-09-02T14:25:35;1.83;;;1.33;;
32800;SDS011;40572;45.552;12.072;2022-09-02T14:28:03;1.40;;;1.30;;
32800;SDS011;40572;45.552;12.072;2022-09-02T14:30:34;3.00;;;1.77;;
32800;SDS011;40572;45.552;12.072;2022-09-02T14:36:00;1.80;;;1.70;;
32800;SDS011;40572;45.552;12.072;2022-09-02T14:38:25;2.37;;;1.70;;
32800;SDS011;40572;45.552;12.072;2022-09-02T14:41:03;2.60;;;1.50;;
32800;SDS011;40572;45.552;12.072;2022-09-02T14:43:33;1.77;;;1.50;;
32800;SDS011;40572;45.552;12.072;2022-09-02T14:46:03;1.60;;;1.50;;
32800;SDS011;40572;45.552;12.072;2022-09-02T14:48:25;2.13;;;1.70;;
32800;SDS011;40572;45.552;12.072;2022-09-02T14:51:02;1.70;;;1.60;;
32800;SDS011;40572;45.552;12.072;2022-09-02T14:53:28;1.63;;;1.53;;
32800;SDS011;40572;45.552;12.072;2022-09-02T14:55:55;2.20;;;1.50;;
32800;SDS011;40572;45.552;12.072;2022-09-02T14:58:22;1.60;;;1.50;;
32800;SDS011;40572;45.552;12.072;2022-09-02T15:00:49;2.20;;;1.80;;
32800;SDS011;40572;45.552;12.072;2022-09-02T15:03:20;2.67;;;1.47;;
32800;SDS011;40572;45.552;12.072;2022-09-02T15:05:47;3.37;;;1.80;;
32800;SDS011;40572;45.552;12.072;2022-09-02T15:08:13;2.27;;;1.73;;
32800;SDS011;40572;45.552;12.072;2022-09-02T15:10:40;2.23;;;1.50;;
32800;SDS011;40572;45.552;12.072;2022-09-02T15:13:11;1.90;;;1.53;;
32800;SDS011;40572;45.552;12.072;2022-09-02T15:15:38;1.70;;;1.60;;
32800;SDS011;40572;45.552;12.072;2022-09-02T15:18:04;2.63;;;1.60;;
32800;SDS011;40572;45.552;12.072;2022-09-02T15:20:31;1.52;;;1.42;;
32800;SDS011;40572;45.552;12.072;2022-09-02T15:22:57;1.83;;;1.70;;
32800;SDS011;40572;45.552;12.072;2022-09-02T15:25:23;2.83;;;1.53;;
32800;SDS011;40572;45.552;12.072;2022-09-02T15:27:50;2.52;;;1.60;;
32800;SDS011;40572;45.552;12.072;2022-09-02T15:30:16;1.70;;;1.50;;
32800;SDS011;40572;45.552;12.072;2022-09-02T15:32:42;2.40;;;1.60;;
32800;SDS011;40572;45.552;12.072;2022-09-02T15:35:09;3.07;;;1.90;;
32800;SDS011;40572;45.552;12.072;2022-09-02T15:37:36;1.93;;;1.57;;
32800;SDS011;40572;45.552;12.072;2022-09-02T15:40:07;3.27;;;1.87;;
32800;SDS011;40572;45.552;12.072;2022-09-02T15:42:33;3.00;;;1.70;;
32800;SDS011;40572;45.552;12.072;2022-09-02T15:44:59;2.00;;;1.80;;
32800;SDS011;40572;45.552;12.072;2022-09-02T15:47:27;4.17;;;2.00;;
32800;SDS011;40572;45.552;12.072;2022-09-02T15:49:55;2.80;;;1.57;;
32800;SDS011;40572;45.552;12.072;2022-09-02T15:52:24;1.93;;;1.50;;
32800;SDS011;40572;45.552;12.072;2022-09-02T15:54:53;2.65;;;1.62;;
32800;SDS011;40572;45.552;12.072;2022-09-02T15:57:19;2.00;;;1.80;;
32800;SDS011;40572;45.552;12.072;2022-09-02T15:59:46;2.13;;;1.93;;
32800;SDS011;40572;45.552;12.072;2022-09-02T16:02:12;3.45;;;2.20;;
32800;SDS011;40572;45.552;12.072;2022-09-02T16:04:38;2.22;;;1.70;;
32800;SDS011;40572;45.552;12.072;2022-09-02T16:07:04;3.35;;;1.80;;
32800;SDS011;40572;45.552;12.072;2022-09-02T16:09:30;2.72;;;1.72;;
32800;SDS011;40572;45.552;12.072;2022-09-02T16:11:56;2.60;;;1.80;;
32800;SDS011;40572;45.552;12.072;2022-09-02T16:14:23;2.17;;;1.63;;
32800;SDS011;40572;45.552;12.072;2022-09-02T16:16:49;2.00;;;1.62;;
32800;SDS011;40572;45.552;12.072;2022-09-02T16:19:21;3.25;;;1.60;;
32800;SDS011;40572;45.552;12.072;2022-09-02T16:21:44;1.97;;;1.67;;
32800;SDS011;40572;45.552;12.072;2022-09-02T16:24:09;4.72;;;2.00;;
32800;SDS011;40572;45.552;12.072;2022-09-02T16:26:36;2.77;;;1.50;;
32800;SDS011;40572;45.552;12.072;2022-09-02T16:29:04;2.10;;;1.90;;
32800;SDS011;40572;45.552;12.072;2022-09-02T16:31:31;3.33;;;1.60;;
32800;SDS011;40572;45.552;12.072;2022-09-02T16:33:59;3.10;;;1.70;;
32800;SDS011;40572;45.552;12.072;2022-09-02T16:36:26;2.33;;;1.50;;
32800;SDS011;40572;45.552;12.072;2022-09-02T16:38:52;1.80;;;1.60;;
32800;SDS011;40572;45.552;12.072;2022-09-02T16:43:52;2.47;;;1.60;;
32800;SDS011;40572;45.552;12.072;2022-09-02T16:46:18;1.87;;;1.67;;
32800;SDS011;40572;45.552;12.072;2022-09-02T16:48:44;2.62;;;1.67;;
32800;SDS011;40572;45.552;12.072;2022-09-02T16:51:11;2.92;;;1.52;;
32800;SDS011;40572;45.552;12.072;2022-09-02T16:53:37;2.05;;;1.60;;
32800;SDS011;40572;45.552;12.072;2022-09-02T16:56:03;2.60;;;1.70;;
32800;SDS011;40572;45.552;12.072;2022-09-02T16:58:29;1.77;;;1.50;;